Time,TemperatureF,DewpointF,PressureIn,WindDirection,WindDirectionDegrees,WindSpeedMPH,WindSpeedGustMPH,Humidity,HourlyPrecipIn,Conditions,Clouds,dailyrainin,SoftwareType,DateUTC
2013-03-20 00:00:00,22.2,17.3,29.80,NW,318,22.0,29.0,81,0.00,,---,0.00,VWS V13.01,2013-03-20 04:00:00,
2013-03-20 00:05:00,22.2,17.0,29.81,North,360,7.0,29.0,80,0.00,,---,0.00,VWS V13.01,2013-03-20 04:05:00,
2013-03-20 00:10:00,22.2,16.4,29.81,North,360,4.0,31.0,78,0.00,,---,0.00,VWS V13.01,2013-03-20 04:10:00,
2013-03-20 00:15:00,22.2,16.4,29.81,WNW,296,14.0,31.0,78,0.00,,---,0.00,VWS V13.01,2013-03-20 04:15:00,
2013-03-20 00:20:00,22.4,16.6,29.81,North,360,14.0,31.0,78,0.00,,---,0.00,VWS V13.01,2013-03-20 04:20:00,
2013-03-20 00:25:00,22.4,16.6,29.81,North,360,18.0,31.0,78,0.00,,---,0.00,VWS V13.01,2013-03-20 04:25:00,
2013-03-20 00:30:00,22.3,16.5,29.82,North,360,9.0,31.0,78,0.00,,---,0.00,VWS V13.01,2013-03-20 04:30:00,
2013-03-20 00:35:00,22.3,15.9,29.81,North,360,15.0,33.0,76,0.00,,---,0.00,VWS V13.01,2013-03-20 04:35:00,
2013-03-20 00:40:00,22.2,15.2,29.81,North,360,29.0,33.0,74,0.00,,---,0.00,VWS V13.01,2013-03-20 04:40:00,
2013-03-20 00:45:00,22.1,15.4,29.81,NW,317,20.0,33.0,75,0.00,,---,0.00,VWS V13.01,2013-03-20 04:45:00,
2013-03-20 00:50:00,22.1,14.8,29.81,North,360,25.0,33.0,73,0.00,,---,0.00,VWS V13.01,2013-03-20 04:50:00,
2013-03-20 00:55:00,22.1,14.8,29.81,North,360,22.0,33.0,73,0.00,,---,0.00,VWS V13.01,2013-03-20 04:55:00,
2013-03-20 01:00:00,22.1,15.7,29.81,North,360,15.0,33.0,76,0.00,,---,0.00,VWS V13.01,2013-03-20 05:00:00,
2013-03-20 01:05:00,22.1,14.8,29.81,NW,316,15.0,33.0,73,0.00,,---,0.00,VWS V13.01,2013-03-20 05:05:00,
2013-03-20 01:10:00,21.8,15.1,29.81,North,360,16.0,33.0,75,0.00,,---,0.00,VWS V13.01,2013-03-20 05:10:00,
2013-03-20 01:15:00,21.9,14.9,29.81,NW,310,24.0,33.0,74,0.00,,---,0.00,VWS V13.01,2013-03-20 05:15:00,
2013-03-20 01:21:00,22.0,15.3,29.81,North,360,20.0,33.0,75,0.00,,---,0.00,VWS V13.01,2013-03-20 05:21:00,
2013-03-20 01:26:00,22.0,15.9,29.81,North,360,19.0,33.0,77,0.00,,---,0.00,VWS V13.01,2013-03-20 05:26:00,
2013-03-20 01:31:00,21.8,15.1,29.81,North,360,25.0,33.0,75,0.00,,---,0.00,VWS V13.01,2013-03-20 05:31:00,
2013-03-20 01:36:00,21.6,14.6,29.81,North,360,16.0,33.0,74,0.00,,---,0.00,VWS V13.01,2013-03-20 05:36:00,
2013-03-20 01:41:00,21.5,13.6,29.81,North,360,19.0,33.0,71,0.00,,---,0.00,VWS V13.01,2013-03-20 05:41:00,
2013-03-20 01:46:00,21.4,14.4,29.81,North,360,18.0,33.0,74,0.00,,---,0.00,VWS V13.01,2013-03-20 05:46:00,
2013-03-20 01:51:00,21.4,14.7,29.81,SE,126,7.0,33.0,75,0.00,,---,0.00,VWS V13.01,2013-03-20 05:51:00,
2013-03-20 01:56:00,21.2,14.2,29.82,North,360,14.0,33.0,74,0.00,,---,0.00,VWS V13.01,2013-03-20 05:56:00,
2013-03-20 02:01:00,21.2,13.9,29.82,WSW,252,11.0,25.0,73,0.00,,---,0.00,VWS V13.01,2013-03-20 06:01:00,
2013-03-20 02:06:00,21.2,13.6,29.82,NW,311,16.0,29.0,72,0.00,,---,0.00,VWS V13.01,2013-03-20 06:06:00,
2013-03-20 02:11:00,21.2,13.9,29.82,NW,317,12.0,30.0,73,0.00,,---,0.00,VWS V13.01,2013-03-20 06:11:00,
2013-03-20 02:16:00,20.9,12.4,29.82,North,360,20.0,30.0,69,0.00,,---,0.00,VWS V13.01,2013-03-20 06:16:00,
2013-03-20 02:21:00,20.9,13.9,29.82,North,360,20.0,30.0,74,0.00,,---,0.00,VWS V13.01,2013-03-20 06:21:00,
2013-03-20 02:26:00,20.8,13.5,29.82,North,360,14.0,30.0,73,0.00,,---,0.00,VWS V13.01,2013-03-20 06:26:00,
2013-03-20 02:31:00,20.7,13.4,29.82,NW,317,13.0,30.0,73,0.00,,---,0.00,VWS V13.01,2013-03-20 06:31:00,
2013-03-20 02:36:00,20.8,14.4,29.82,North,360,5.0,30.0,76,0.00,,---,0.00,VWS V13.01,2013-03-20 06:36:00,
2013-03-20 02:40:00,20.7,12.5,29.82,North,360,21.0,31.0,70,0.00,,---,0.00,VWS V13.01,2013-03-20 06:40:00,
2013-03-20 02:45:00,20.6,13.6,29.82,North,360,18.0,31.0,74,0.00,,---,0.00,VWS V13.01,2013-03-20 06:45:00,
2013-03-20 02:50:00,20.6,13.3,29.82,North,360,13.0,31.0,73,0.00,,---,0.00,VWS V13.01,2013-03-20 06:50:00,
2013-03-20 02:55:00,20.6,12.7,29.82,North,360,21.0,31.0,71,0.00,,---,0.00,VWS V13.01,2013-03-20 06:55:00,
2013-03-20 03:00:00,20.4,12.5,29.82,North,360,24.0,31.0,71,0.00,,---,0.00,VWS V13.01,2013-03-20 07:00:00,
2013-03-20 03:05:00,20.4,12.8,29.82,North,360,23.0,31.0,72,0.00,,---,0.00,VWS V13.01,2013-03-20 07:05:00,
2013-03-20 03:10:00,20.4,12.5,29.82,North,360,6.0,31.0,71,0.00,,---,0.00,VWS V13.01,2013-03-20 07:10:00,
2013-03-20 03:15:00,20.4,13.1,29.82,North,360,13.0,31.0,73,0.00,,---,0.00,VWS V13.01,2013-03-20 07:15:00,
2013-03-20 03:20:00,20.4,13.1,29.82,North,360,10.0,31.0,73,0.00,,---,0.00,VWS V13.01,2013-03-20 07:20:00,
2013-03-20 03:25:00,20.5,13.5,29.82,North,360,13.0,31.0,74,0.00,,---,0.00,VWS V13.01,2013-03-20 07:25:00,
2013-03-20 03:30:00,20.5,12.9,29.82,North,360,21.0,31.0,72,0.00,,---,0.00,VWS V13.01,2013-03-20 07:30:00,
2013-03-20 03:35:00,20.5,13.2,29.81,North,360,11.0,31.0,73,0.00,,---,0.00,VWS V13.01,2013-03-20 07:35:00,
2013-03-20 03:40:00,20.6,13.6,29.82,North,360,18.0,31.0,74,0.00,,---,0.00,VWS V13.01,2013-03-20 07:40:00,
2013-03-20 03:45:00,20.6,12.7,29.82,North,360,17.0,31.0,71,0.00,,---,0.00,VWS V13.01,2013-03-20 07:45:00,
2013-03-20 03:50:00,20.5,12.6,29.82,WNW,298,3.0,31.0,71,0.00,,---,0.00,VWS V13.01,2013-03-20 07:50:00,
2013-03-20 03:55:00,20.5,12.9,29.82,NW,309,25.0,31.0,72,0.00,,---,0.00,VWS V13.01,2013-03-20 07:55:00,
2013-03-20 04:00:00,20.4,12.8,29.82,North,360,23.0,23.0,72,0.00,,---,0.00,VWS V13.01,2013-03-20 08:00:00,
2013-03-20 04:05:00,20.3,12.4,29.82,North,360,14.0,26.0,71,0.00,,---,0.00,VWS V13.01,2013-03-20 08:05:00,
2013-03-20 04:10:00,20.3,13.0,29.82,NW,318,19.0,26.0,73,0.00,,---,0.00,VWS V13.01,2013-03-20 08:10:00,
2013-03-20 04:15:00,20.4,13.1,29.82,North,360,9.0,26.0,73,0.00,,---,0.00,VWS V13.01,2013-03-20 08:15:00,
2013-03-20 04:20:00,20.3,12.7,29.82,North,360,19.0,26.0,72,0.00,,---,0.00,VWS V13.01,2013-03-20 08:20:00,
2013-03-20 04:25:00,20.2,12.6,29.82,North,360,19.0,27.0,72,0.00,,---,0.00,VWS V13.01,2013-03-20 08:25:00,
2013-03-20 04:30:00,20.1,12.9,29.82,NW,313,18.0,27.0,73,0.00,,---,0.00,VWS V13.01,2013-03-20 08:30:00,
2013-03-20 04:35:00,20.0,12.8,29.82,North,360,4.0,27.0,73,0.00,,---,0.00,VWS V13.01,2013-03-20 08:35:00,
2013-03-20 04:40:00,20.0,12.4,29.82,SW,222,16.0,27.0,72,0.00,,---,0.00,VWS V13.01,2013-03-20 08:40:00,
2013-03-20 04:45:00,19.9,12.0,29.82,North,360,22.0,27.0,71,0.00,,---,0.00,VWS V13.01,2013-03-20 08:45:00,
2013-03-20 04:50:00,19.9,12.3,29.82,NW,314,16.0,28.0,72,0.00,,---,0.00,VWS V13.01,2013-03-20 08:50:00,
2013-03-20 04:55:00,19.8,12.9,29.82,North,360,22.0,28.0,74,0.00,,---,0.00,VWS V13.01,2013-03-20 08:55:00,
2013-03-20 05:00:00,19.8,12.9,29.82,North,360,4.0,28.0,74,0.00,,---,0.00,VWS V13.01,2013-03-20 09:00:00,
2013-03-20 05:05:00,19.8,12.2,29.82,North,360,10.0,28.0,72,0.00,,---,0.00,VWS V13.01,2013-03-20 09:05:00,
2013-03-20 05:10:00,20.0,12.4,29.82,North,360,16.0,28.0,72,0.00,,---,0.00,VWS V13.01,2013-03-20 09:10:00,
2013-03-20 05:15:00,20.0,12.4,29.82,North,360,16.0,28.0,72,0.00,,---,0.00,VWS V13.01,2013-03-20 09:15:00,
2013-03-20 05:20:00,20.0,12.8,29.82,North,360,12.0,28.0,73,0.00,,---,0.00,VWS V13.01,2013-03-20 09:20:00,
2013-03-20 05:25:00,20.0,13.1,29.82,North,360,11.0,28.0,74,0.00,,---,0.00,VWS V13.01,2013-03-20 09:25:00,
2013-03-20 05:30:00,19.7,12.1,29.82,North,360,2.0,28.0,72,0.00,,---,0.00,VWS V13.01,2013-03-20 09:30:00,
2013-03-20 05:35:00,19.7,12.5,29.82,North,360,10.0,28.0,73,0.00,,---,0.00,VWS V13.01,2013-03-20 09:35:00,
2013-03-20 05:40:00,19.7,13.1,29.82,North,360,6.0,28.0,75,0.00,,---,0.00,VWS V13.01,2013-03-20 09:40:00,
2013-03-20 05:45:00,19.7,13.1,29.82,North,360,4.0,28.0,75,0.00,,---,0.00,VWS V13.01,2013-03-20 09:45:00,
2013-03-20 05:50:00,19.7,13.1,29.82,North,360,20.0,28.0,75,0.00,,---,0.00,VWS V13.01,2013-03-20 09:50:00,
2013-03-20 05:55:00,19.7,12.8,29.82,North,360,15.0,28.0,74,0.00,,---,0.00,VWS V13.01,2013-03-20 09:55:00,
2013-03-20 06:00:00,19.7,13.7,29.82,North,360,9.0,18.0,77,0.00,,---,0.00,VWS V13.01,2013-03-20 10:00:00,
2013-03-20 06:05:00,19.7,14.0,29.82,North,360,23.0,23.0,78,0.00,,---,0.00,VWS V13.01,2013-03-20 10:05:00,
2013-03-20 06:10:00,19.7,13.4,29.82,North,360,13.0,23.0,76,0.00,,---,0.00,VWS V13.01,2013-03-20 10:10:00,
2013-03-20 06:15:00,19.7,14.0,29.82,North,360,11.0,24.0,78,0.00,,---,0.00,VWS V13.01,2013-03-20 10:15:00,
2013-03-20 06:20:00,19.5,14.1,29.82,North,360,10.0,24.0,79,0.00,,---,0.00,VWS V13.01,2013-03-20 10:20:00,
2013-03-20 06:25:00,19.5,13.8,29.82,NW,313,17.0,26.0,78,0.00,,---,0.00,VWS V13.01,2013-03-20 10:25:00,
2013-03-20 06:30:00,19.5,13.5,29.83,NW,310,15.0,26.0,77,0.00,,---,0.00,VWS V13.01,2013-03-20 10:30:00,
2013-03-20 06:35:00,19.4,13.7,29.82,North,360,14.0,26.0,78,0.00,,---,0.00,VWS V13.01,2013-03-20 10:35:00,
2013-03-20 06:40:00,19.3,14.1,29.83,North,360,13.0,26.0,80,0.00,,---,0.00,VWS V13.01,2013-03-20 10:40:00,
2013-03-20 06:45:00,19.2,14.1,29.83,North,360,17.0,26.0,80,0.00,,---,0.00,VWS V13.01,2013-03-20 10:45:00,
2013-03-20 06:50:00,19.1,14.0,29.83,North,360,3.0,26.0,80,0.00,,---,0.00,VWS V13.01,2013-03-20 10:50:00,
2013-03-20 06:55:00,19.0,14.1,29.83,NW,306,2.0,26.0,81,0.00,,---,0.00,VWS V13.01,2013-03-20 10:55:00,
2013-03-20 07:00:00,19.1,14.5,29.83,NW,315,7.0,26.0,82,0.00,,---,0.00,VWS V13.01,2013-03-20 11:00:00,
2013-03-20 12:00:00,19.3,16.1,29.86,North,0,10.0,26.0,87,0.00,,---,0.00,VWS V13.01,2013-03-20 16:00:00,
2013-03-20 12:32:00,20.8,17.3,29.86,North,360,14.0,14.0,86,0.00,,---,0.00,VWS V13.01,2013-03-20 16:32:00,
2013-03-20 12:37:00,20.9,17.6,29.86,North,360,11.0,24.0,87,0.00,,---,0.00,VWS V13.01,2013-03-20 16:37:00,
2013-03-20 12:42:00,20.8,17.3,29.87,North,360,12.0,24.0,86,0.00,,---,0.00,VWS V13.01,2013-03-20 16:42:00,
2013-03-20 12:47:00,20.8,17.3,29.86,NW,315,20.0,24.0,86,0.00,,---,0.00,VWS V13.01,2013-03-20 16:47:00,
2013-03-20 12:53:00,20.5,17.2,29.87,North,360,16.0,25.0,87,0.00,,---,0.00,VWS V13.01,2013-03-20 16:53:00,
2013-03-20 12:58:00,20.7,17.5,29.87,North,360,12.0,26.0,87,0.00,,---,0.00,VWS V13.01,2013-03-20 16:58:00,
2013-03-20 13:03:00,20.9,17.6,29.87,North,360,12.0,26.0,87,0.00,,---,0.00,VWS V13.01,2013-03-20 17:03:00,
2013-03-20 13:08:00,20.8,17.3,29.86,North,360,7.0,26.0,86,0.00,,---,0.00,VWS V13.01,2013-03-20 17:08:00,
2013-03-20 13:13:00,20.9,17.4,29.87,WNW,302,7.0,26.0,86,0.00,,---,0.00,VWS V13.01,2013-03-20 17:13:00,
2013-03-20 13:18:00,21.0,17.8,29.87,WNW,299,21.0,26.0,87,0.00,,---,0.00,VWS V13.01,2013-03-20 17:18:00,
2013-03-20 13:23:00,21.0,17.5,29.87,North,360,4.0,26.0,86,0.00,,---,0.00,VWS V13.01,2013-03-20 17:23:00,
2013-03-20 13:28:00,21.1,17.6,29.87,North,360,14.0,26.0,86,0.00,,---,0.00,VWS V13.01,2013-03-20 17:28:00,
2013-03-20 13:33:00,21.2,17.7,29.87,North,360,15.0,26.0,86,0.00,,---,0.00,VWS V13.01,2013-03-20 17:33:00,
2013-03-20 13:38:00,21.1,17.3,29.86,North,360,19.0,26.0,85,0.00,,---,0.00,VWS V13.01,2013-03-20 17:38:00,
2013-03-20 13:43:00,21.4,17.9,29.87,North,360,18.0,26.0,86,0.00,,---,0.00,VWS V13.01,2013-03-20 17:43:00,
2013-03-20 13:48:00,21.3,18.0,29.87,North,360,17.0,26.0,87,0.00,,---,0.00,VWS V13.01,2013-03-20 17:48:00,
2013-03-20 13:53:00,21.2,17.9,29.87,North,360,18.0,26.0,87,0.00,,---,0.00,VWS V13.01,2013-03-20 17:53:00,
2013-03-20 13:58:00,21.1,17.6,29.87,East,99,7.0,11.0,86,0.00,,---,0.00,VWS V13.01,2013-03-20 17:58:00,
2013-03-20 14:03:00,21.2,17.9,29.87,North,360,12.0,23.0,87,0.00,,---,0.00,VWS V13.01,2013-03-20 18:03:00,
2013-03-20 14:08:00,21.3,18.0,29.87,East,80,9.0,23.0,87,0.00,,---,0.00,VWS V13.01,2013-03-20 18:08:00,
2013-03-20 14:13:00,21.2,17.9,29.87,North,360,6.0,23.0,87,0.00,,---,0.00,VWS V13.01,2013-03-20 18:13:00,
2013-03-20 14:18:00,21.2,17.9,29.87,North,360,11.0,26.0,87,0.00,,---,0.00,VWS V13.01,2013-03-20 18:18:00,
2013-03-20 14:23:00,21.2,18.2,29.87,North,360,11.0,26.0,88,0.00,,---,0.00,VWS V13.01,2013-03-20 18:23:00,
2013-03-20 14:28:00,21.2,17.9,29.87,North,360,7.0,26.0,87,0.00,,---,0.00,VWS V13.01,2013-03-20 18:28:00,
2013-03-20 14:33:00,21.3,17.8,29.87,North,360,17.0,26.0,86,0.00,,---,0.00,VWS V13.01,2013-03-20 18:33:00,
2013-03-20 14:38:00,21.4,17.9,29.87,North,360,26.0,28.0,86,0.00,,---,0.00,VWS V13.01,2013-03-20 18:38:00,
2013-03-20 14:43:00,21.2,17.9,29.87,NW,317,22.0,28.0,87,0.00,,---,0.00,VWS V13.01,2013-03-20 18:43:00,
2013-03-20 14:48:00,21.4,17.9,29.87,North,360,23.0,28.0,86,0.00,,---,0.00,VWS V13.01,2013-03-20 18:48:00,
2013-03-20 14:53:00,21.5,18.0,29.87,North,360,17.0,28.0,86,0.00,,---,0.00,VWS V13.01,2013-03-20 18:53:00,
2013-03-20 14:58:00,21.5,18.0,29.87,North,360,21.0,28.0,86,0.00,,---,0.00,VWS V13.01,2013-03-20 18:58:00,
2013-03-20 15:03:00,21.4,18.1,29.87,North,360,11.0,28.0,87,0.00,,---,0.00,VWS V13.01,2013-03-20 19:03:00,
2013-03-20 15:08:00,21.5,18.0,29.87,North,360,12.0,28.0,86,0.00,,---,0.00,VWS V13.01,2013-03-20 19:08:00,
2013-03-20 15:13:00,21.4,17.9,29.87,NW,308,16.0,28.0,86,0.00,,---,0.00,VWS V13.01,2013-03-20 19:13:00,
2013-03-20 15:18:00,21.5,18.0,29.87,WNW,298,6.0,28.0,86,0.00,,---,0.00,VWS V13.01,2013-03-20 19:18:00,
2013-03-20 15:23:00,21.5,18.0,29.87,North,360,9.0,28.0,86,0.00,,---,0.00,VWS V13.01,2013-03-20 19:23:00,
2013-03-20 15:28:00,21.3,18.0,29.87,North,360,20.0,29.0,87,0.00,,---,0.00,VWS V13.01,2013-03-20 19:28:00,
2013-03-20 15:33:00,21.5,18.2,29.87,North,360,21.0,29.0,87,0.00,,---,0.00,VWS V13.01,2013-03-20 19:33:00,
2013-03-20 15:38:00,21.5,18.0,29.87,North,360,24.0,29.0,86,0.00,,---,0.00,VWS V13.01,2013-03-20 19:38:00,
2013-03-20 15:43:00,21.4,18.1,29.87,North,360,16.0,29.0,87,0.00,,---,0.00,VWS V13.01,2013-03-20 19:43:00,
2013-03-20 15:48:00,21.5,18.0,29.87,West,272,13.0,29.0,86,0.00,,---,0.00,VWS V13.01,2013-03-20 19:48:00,
2013-03-20 15:53:00,21.5,18.0,29.87,North,360,6.0,29.0,86,0.00,,---,0.00,VWS V13.01,2013-03-20 19:53:00,
2013-03-20 15:58:00,21.5,18.0,29.87,ENE,72,12.0,27.0,86,0.00,,---,0.00,VWS V13.01,2013-03-20 19:58:00,
2013-03-20 16:03:00,21.6,18.1,29.88,North,360,21.0,27.0,86,0.00,,---,0.00,VWS V13.01,2013-03-20 20:03:00,
2013-03-20 16:08:00,21.4,18.1,29.88,NW,313,18.0,27.0,87,0.00,,---,0.00,VWS V13.01,2013-03-20 20:08:00,
2013-03-20 16:13:00,21.2,17.9,29.88,North,360,10.0,29.0,87,0.00,,---,0.00,VWS V13.01,2013-03-20 20:13:00,
2013-03-20 16:18:00,21.2,17.9,29.88,North,360,15.0,29.0,87,0.00,,---,0.00,VWS V13.01,2013-03-20 20:18:00,
2013-03-20 16:23:00,21.2,17.9,29.88,North,360,13.0,29.0,87,0.00,,---,0.00,VWS V13.01,2013-03-20 20:23:00,
2013-03-20 16:28:00,21.3,18.0,29.89,North,360,19.0,29.0,87,0.00,,---,0.00,VWS V13.01,2013-03-20 20:28:00,
2013-03-20 16:33:00,21.2,17.9,29.89,NW,316,19.0,29.0,87,0.00,,---,0.00,VWS V13.01,2013-03-20 20:33:00,
2013-03-20 16:38:00,21.1,18.1,29.89,NW,318,22.0,29.0,88,0.00,,---,0.00,VWS V13.01,2013-03-20 20:38:00,
2013-03-20 16:43:00,21.2,18.2,29.89,North,360,15.0,29.0,88,0.00,,---,0.00,VWS V13.01,2013-03-20 20:43:00,
2013-03-20 16:48:00,21.5,18.5,29.89,NW,311,14.0,29.0,88,0.00,,---,0.00,VWS V13.01,2013-03-20 20:48:00,
2013-03-20 16:53:00,21.5,18.5,29.89,NW,314,4.0,29.0,88,0.00,,---,0.00,VWS V13.01,2013-03-20 20:53:00,
2013-03-20 16:58:00,21.3,18.0,29.89,North,360,5.0,33.0,87,0.00,,---,0.00,VWS V13.01,2013-03-20 20:58:00,
2013-03-20 17:03:00,21.5,18.8,29.90,North,360,21.0,33.0,89,0.00,,---,0.00,VWS V13.01,2013-03-20 21:03:00,
2013-03-20 17:08:00,21.7,18.4,29.90,NW,317,19.0,33.0,87,0.00,,---,0.00,VWS V13.01,2013-03-20 21:08:00,
2013-03-20 17:13:00,21.6,18.3,29.90,North,360,5.0,33.0,87,0.00,,---,0.00,VWS V13.01,2013-03-20 21:13:00,
2013-03-20 17:18:00,21.6,18.3,29.90,North,360,18.0,33.0,87,0.00,,---,0.00,VWS V13.01,2013-03-20 21:18:00,
2013-03-20 17:23:00,21.5,18.5,29.90,North,360,9.0,33.0,88,0.00,,---,0.00,VWS V13.01,2013-03-20 21:23:00,
2013-03-20 17:28:00,21.6,18.6,29.90,North,360,13.0,33.0,88,0.00,,---,0.00,VWS V13.01,2013-03-20 21:28:00,
2013-03-20 17:33:00,21.5,18.5,29.91,North,360,22.0,33.0,88,0.00,,---,0.00,VWS V13.01,2013-03-20 21:33:00,
2013-03-20 17:38:00,21.4,18.4,29.91,North,360,7.0,33.0,88,0.00,,---,0.00,VWS V13.01,2013-03-20 21:38:00,
2013-03-20 17:43:00,21.6,18.3,29.91,North,360,16.0,33.0,87,0.00,,---,0.00,VWS V13.01,2013-03-20 21:43:00,
2013-03-20 17:48:00,21.6,18.3,29.91,North,360,10.0,33.0,87,0.00,,---,0.00,VWS V13.01,2013-03-20 21:48:00,
2013-03-20 17:53:00,21.7,18.4,29.91,North,360,9.0,33.0,87,0.00,,---,0.00,VWS V13.01,2013-03-20 21:53:00,
2013-03-20 17:58:00,21.8,18.5,29.91,North,360,13.0,24.0,87,0.00,,---,0.00,VWS V13.01,2013-03-20 21:58:00,
2013-03-20 18:03:00,22.0,18.7,29.91,South,173,9.0,25.0,87,0.00,,---,0.00,VWS V13.01,2013-03-20 22:03:00,
2013-03-20 18:08:00,22.0,18.7,29.91,North,360,18.0,26.0,87,0.00,,---,0.00,VWS V13.01,2013-03-20 22:08:00,
2013-03-20 18:13:00,22.0,18.5,29.91,South,173,6.0,27.0,86,0.00,,---,0.00,VWS V13.01,2013-03-20 22:13:00,
2013-03-20 18:18:00,21.9,18.4,29.91,North,360,20.0,27.0,86,0.00,,---,0.00,VWS V13.01,2013-03-20 22:18:00,
2013-03-20 18:23:00,21.9,18.4,29.91,North,360,21.0,28.0,86,0.00,,---,0.00,VWS V13.01,2013-03-20 22:23:00,
2013-03-20 18:28:00,21.8,18.0,29.91,North,360,22.0,28.0,85,0.00,,---,0.00,VWS V13.01,2013-03-20 22:28:00,
2013-03-20 18:33:00,22.0,18.2,29.91,North,360,20.0,28.0,85,0.00,,---,0.00,VWS V13.01,2013-03-20 22:33:00,
2013-03-20 18:38:00,22.0,18.5,29.91,SE,132,14.0,28.0,86,0.00,,---,0.00,VWS V13.01,2013-03-20 22:38:00,
2013-03-20 18:43:00,22.0,18.5,29.92,North,360,22.0,28.0,86,0.00,,---,0.00,VWS V13.01,2013-03-20 22:43:00,
2013-03-20 18:48:00,22.1,18.6,29.92,North,360,11.0,28.0,86,0.00,,---,0.00,VWS V13.01,2013-03-20 22:48:00,
2013-03-20 18:53:00,22.1,18.8,29.92,NW,308,17.0,28.0,87,0.00,,---,0.00,VWS V13.01,2013-03-20 22:53:00,
2013-03-20 18:58:00,22.0,18.5,29.92,North,360,15.0,28.0,86,0.00,,---,0.00,VWS V13.01,2013-03-20 22:58:00,
2013-03-20 19:03:00,22.0,18.2,29.93,North,360,16.0,28.0,85,0.00,,---,0.00,VWS V13.01,2013-03-20 23:03:00,
2013-03-20 19:08:00,22.1,18.3,29.92,NW,315,16.0,28.0,85,0.00,,---,0.00,VWS V13.01,2013-03-20 23:08:00,
2013-03-20 19:13:00,22.3,18.2,29.93,East,80,7.0,28.0,84,0.00,,---,0.00,VWS V13.01,2013-03-20 23:13:00,
2013-03-20 19:18:00,22.3,18.5,29.93,North,360,10.0,28.0,85,0.00,,---,0.00,VWS V13.01,2013-03-20 23:18:00,
2013-03-20 19:23:00,22.4,18.6,29.93,North,360,9.0,28.0,85,0.00,,---,0.00,VWS V13.01,2013-03-20 23:23:00,
2013-03-20 19:28:00,22.6,18.8,29.93,North,360,14.0,28.0,85,0.00,,---,0.00,VWS V13.01,2013-03-20 23:28:00,
2013-03-20 19:33:00,22.6,18.5,29.93,NW,317,14.0,28.0,84,0.00,,---,0.00,VWS V13.01,2013-03-20 23:33:00,
2013-03-20 19:38:00,22.7,18.3,29.93,North,360,24.0,28.0,83,0.00,,---,0.00,VWS V13.01,2013-03-20 23:38:00,
2013-03-20 19:43:00,22.8,18.1,29.93,North,360,15.0,28.0,82,0.00,,---,0.00,VWS V13.01,2013-03-20 23:43:00,
2013-03-20 19:48:00,22.8,18.4,29.94,North,360,16.0,28.0,83,0.01,,---,0.01,VWS V13.01,2013-03-20 23:48:00,
2013-03-20 19:53:00,22.9,18.5,29.94,North,360,7.0,28.0,83,0.01,,---,0.01,VWS V13.01,2013-03-20 23:53:00,
2013-03-20 19:59:00,23.0,18.0,29.94,North,360,6.0,22.0,81,0.01,,---,0.01,VWS V13.01,2013-03-20 23:59:00,
2013-03-20 20:04:00,23.2,18.2,29.94,North,360,15.0,31.0,81,0.01,,---,0.01,VWS V13.01,2013-03-21 00:04:00,
2013-03-20 20:09:00,23.2,18.5,29.94,North,360,13.0,31.0,82,0.01,,---,0.01,VWS V13.01,2013-03-21 00:09:00,
2013-03-20 20:14:00,23.3,18.9,29.94,North,360,6.0,31.0,83,0.01,,---,0.01,VWS V13.01,2013-03-21 00:14:00,
2013-03-20 20:19:00,23.3,18.3,29.94,North,360,22.0,31.0,81,0.01,,---,0.01,VWS V13.01,2013-03-21 00:19:00,
2013-03-20 20:24:00,23.5,18.8,29.94,North,360,21.0,31.0,82,0.01,,---,0.01,VWS V13.01,2013-03-21 00:24:00,
2013-03-20 20:29:00,23.6,18.6,29.94,North,360,9.0,31.0,81,0.01,,---,0.01,VWS V13.01,2013-03-21 00:29:00,
2013-03-20 20:34:00,23.6,18.4,29.94,North,360,18.0,31.0,80,0.01,,---,0.01,VWS V13.01,2013-03-21 00:34:00,
2013-03-20 20:39:00,23.4,18.1,29.94,North,360,12.0,31.0,80,0.01,,---,0.01,VWS V13.01,2013-03-21 00:39:00,
2013-03-20 20:44:00,23.3,18.6,29.94,North,360,19.0,31.0,82,0.01,,---,0.01,VWS V13.01,2013-03-21 00:44:00,
2013-03-20 20:49:00,23.3,18.6,29.94,North,360,17.0,31.0,82,0.01,,---,0.01,VWS V13.01,2013-03-21 00:49:00,
2013-03-20 20:54:00,23.3,18.6,29.94,North,360,7.0,31.0,82,0.01,,---,0.01,VWS V13.01,2013-03-21 00:54:00,
2013-03-20 20:59:00,23.4,19.0,29.94,NW,307,8.0,31.0,83,0.01,,---,0.01,VWS V13.01,2013-03-21 00:59:00,
2013-03-20 21:04:00,23.4,19.3,29.94,North,360,15.0,31.0,84,0.01,,---,0.01,VWS V13.01,2013-03-21 01:04:00,
2013-03-20 21:09:00,23.6,19.5,29.94,North,360,18.0,31.0,84,0.01,,---,0.01,VWS V13.01,2013-03-21 01:09:00,
2013-03-20 21:14:00,23.4,19.6,29.94,North,360,10.0,31.0,85,0.01,,---,0.01,VWS V13.01,2013-03-21 01:14:00,
2013-03-20 21:19:00,23.4,19.8,29.94,North,360,5.0,31.0,86,0.01,,---,0.01,VWS V13.01,2013-03-21 01:19:00,
2013-03-20 21:24:00,23.4,20.1,29.94,North,360,9.0,31.0,87,0.01,,---,0.01,VWS V13.01,2013-03-21 01:24:00,
2013-03-20 21:29:00,23.5,20.2,29.94,North,360,10.0,31.0,87,0.01,,---,0.01,VWS V13.01,2013-03-21 01:29:00,
2013-03-20 21:34:00,23.5,20.2,29.94,North,360,10.0,31.0,87,0.01,,---,0.01,VWS V13.01,2013-03-21 01:34:00,
2013-03-20 21:39:00,23.8,20.8,29.94,North,360,11.0,31.0,88,0.01,,---,0.01,VWS V13.01,2013-03-21 01:39:00,
2013-03-20 21:44:00,23.9,20.9,29.95,North,360,10.0,31.0,88,0.01,,---,0.01,VWS V13.01,2013-03-21 01:44:00,
2013-03-20 21:49:00,24.0,20.4,29.94,North,360,16.0,31.0,86,0.01,,---,0.01,VWS V13.01,2013-03-21 01:49:00,
2013-03-20 21:54:00,24.2,20.1,29.94,WNW,291,12.0,31.0,84,0.01,,---,0.01,VWS V13.01,2013-03-21 01:54:00,
2013-03-20 21:59:00,24.3,19.9,29.95,North,360,13.0,23.0,83,0.01,,---,0.01,VWS V13.01,2013-03-21 01:59:00,
2013-03-20 22:04:00,24.6,19.6,29.95,North,360,27.0,31.0,81,0.00,,---,0.01,VWS V13.01,2013-03-21 02:04:00,
2013-03-20 22:09:00,24.6,19.3,29.94,North,360,15.0,31.0,80,0.00,,---,0.01,VWS V13.01,2013-03-21 02:09:00,
2013-03-20 22:14:00,24.6,19.9,29.94,North,360,15.0,31.0,82,0.00,,---,0.01,VWS V13.01,2013-03-21 02:14:00,
2013-03-20 22:19:00,24.5,20.1,29.94,North,360,5.0,31.0,83,0.00,,---,0.01,VWS V13.01,2013-03-21 02:19:00,
2013-03-20 22:24:00,24.6,20.2,29.94,North,360,26.0,31.0,83,0.00,,---,0.01,VWS V13.01,2013-03-21 02:24:00,
2013-03-20 22:29:00,24.4,20.0,29.93,North,360,19.0,31.0,83,0.00,,---,0.01,VWS V13.01,2013-03-21 02:29:00,
2013-03-20 22:34:00,24.4,20.5,29.94,ENE,77,13.0,31.0,85,0.00,,---,0.01,VWS V13.01,2013-03-21 02:34:00,
2013-03-20 22:39:00,24.3,20.7,29.93,North,360,13.0,31.0,86,0.00,,---,0.01,VWS V13.01,2013-03-21 02:39:00,
2013-03-20 22:44:00,24.2,20.9,29.93,North,360,21.0,31.0,87,0.00,,---,0.01,VWS V13.01,2013-03-21 02:44:00,
2013-03-20 22:49:00,24.2,21.2,29.93,North,360,22.0,31.0,88,0.00,,---,0.01,VWS V13.01,2013-03-21 02:49:00,
2013-03-20 22:54:00,24.5,21.5,29.93,North,360,18.0,31.0,88,0.00,,---,0.01,VWS V13.01,2013-03-21 02:54:00,
2013-03-20 22:59:00,24.6,21.3,29.93,North,360,5.0,31.0,87,0.00,,---,0.01,VWS V13.01,2013-03-21 02:59:00,
2013-03-20 23:04:00,24.6,21.3,29.93,North,360,27.0,31.0,87,0.00,,---,0.01,VWS V13.01,2013-03-21 03:04:00,
2013-03-20 23:09:00,24.8,21.5,29.92,SSW,209,9.0,31.0,87,0.00,,---,0.01,VWS V13.01,2013-03-21 03:09:00,
2013-03-20 23:14:00,24.8,21.5,29.92,North,360,20.0,31.0,87,0.00,,---,0.01,VWS V13.01,2013-03-21 03:14:00,
2013-03-20 23:19:00,24.9,21.3,29.92,North,360,10.0,31.0,86,0.00,,---,0.01,VWS V13.01,2013-03-21 03:19:00,
2013-03-20 23:24:00,24.9,21.3,29.92,North,360,10.0,31.0,86,0.00,,---,0.01,VWS V13.01,2013-03-21 03:24:00,
2013-03-20 23:29:00,25.1,21.8,29.92,North,360,20.0,31.0,87,0.00,,---,0.01,VWS V13.01,2013-03-21 03:29:00,
2013-03-20 23:34:00,25.1,21.5,29.92,North,360,15.0,31.0,86,0.00,,---,0.01,VWS V13.01,2013-03-21 03:34:00,
2013-03-20 23:39:00,25.4,22.1,29.92,North,360,17.0,31.0,87,0.00,,---,0.01,VWS V13.01,2013-03-21 03:39:00,
2013-03-20 23:44:00,25.5,22.2,29.92,North,360,12.0,31.0,87,0.00,,---,0.01,VWS V13.01,2013-03-21 03:44:00,
2013-03-20 23:49:00,25.5,22.2,29.92,North,360,9.0,31.0,87,0.00,,---,0.01,VWS V13.01,2013-03-21 03:49:00,
2013-03-20 23:54:00,25.6,22.3,29.92,North,360,16.0,31.0,87,0.00,,---,0.01,VWS V13.01,2013-03-21 03:54:00,
2013-03-20 23:59:00,25.7,22.4,29.92,North,360,11.0,28.0,87,0.00,,---,0.00,VWS V13.01,2013-03-21 03:59:00,